sensor_id;sensor_type;location;lat;lon;timestamp;P1;durP1;ratioP1;P2;durP2;ratioP2
1765;SDS011;880;52.452;8.656;2023-05-07T00:02:08;32.38;;;17.58;;
1765;SDS011;880;52.452;8.656;2023-05-07T00:04:35;26.55;;;15.85;;
1765;SDS011;880;52.452;8.656;2023-05-07T00:07:04;28.65;;;16.38;;
1765;SDS011;880;52.452;8.656;2023-05-07T00:09:31;33.13;;;17.50;;
1765;SDS011;880;52.452;8.656;2023-05-07T00:11:58;29.42;;;18.52;;
1765;SDS011;880;52.452;8.656;2023-05-07T00:14:25;29.15;;;17.38;;
1765;SDS011;880;52.452;8.656;2023-05-07T00:16:52;24.73;;;14.15;;
1765;SDS011;880;52.452;8.656;2023-05-07T00:19:20;29.20;;;18.23;;
1765;SDS011;880;52.452;8.656;2023-05-07T00:21:46;30.48;;;18.35;;
1765;SDS011;880;52.452;8.656;2023-05-07T00:24:13;31.45;;;18.73;;
1765;SDS011;880;52.452;8.656;2023-05-07T00:26:41;22.08;;;12.77;;
1765;SDS011;880;52.452;8.656;2023-05-07T00:29:08;28.63;;;16.98;;
1765;SDS011;880;52.452;8.656;2023-05-07T00:31:35;30.52;;;19.15;;
1765;SDS011;880;52.452;8.656;2023-05-07T00:34:02;32.75;;;18.40;;
1765;SDS011;880;52.452;8.656;2023-05-07T00:36:29;31.92;;;18.40;;
1765;SDS011;880;52.452;8.656;2023-05-07T00:38:56;23.25;;;13.50;;
1765;SDS011;880;52.452;8.656;2023-05-07T00:41:26;27.80;;;17.15;;
1765;SDS011;880;52.452;8.656;2023-05-07T00:43:53;29.75;;;18.98;;
1765;SDS011;880;52.452;8.656;2023-05-07T00:46:20;19.35;;;11.65;;
1765;SDS011;880;52.452;8.656;2023-05-07T00:48:48;27.88;;;17.40;;
1765;SDS011;880;52.452;8.656;2023-05-07T00:51:18;30.27;;;17.95;;
1765;SDS011;880;52.452;8.656;2023-05-07T00:53:46;24.50;;;14.35;;
1765;SDS011;880;52.452;8.656;2023-05-07T00:56:13;27.55;;;16.90;;
1765;SDS011;880;52.452;8.656;2023-05-07T00:58:41;25.40;;;16.08;;
1765;SDS011;880;52.452;8.656;2023-05-07T01:01:08;25.20;;;16.02;;
1765;SDS011;880;52.452;8.656;2023-05-07T01:03:35;21.67;;;13.43;;
1765;SDS011;880;52.452;8.656;2023-05-07T01:06:03;28.02;;;15.73;;
1765;SDS011;880;52.452;8.656;2023-05-07T01:08:33;22.48;;;15.32;;
1765;SDS011;880;52.452;8.656;2023-05-07T01:11:01;27.50;;;16.35;;
1765;SDS011;880;52.452;8.656;2023-05-07T01:13:29;25.63;;;15.90;;
1765;SDS011;880;52.452;8.656;2023-05-07T01:15:57;31.70;;;19.77;;
1765;SDS011;880;52.452;8.656;2023-05-07T01:18:24;21.73;;;12.73;;
1765;SDS011;880;52.452;8.656;2023-05-07T01:20:52;25.17;;;14.25;;
1765;SDS011;880;52.452;8.656;2023-05-07T01:23:22;30.63;;;16.25;;
1765;SDS011;880;52.452;8.656;2023-05-07T01:25:52;28.70;;;17.45;;
1765;SDS011;880;52.452;8.656;2023-05-07T01:28:22;28.63;;;17.13;;
1765;SDS011;880;52.452;8.656;2023-05-07T01:30:51;33.13;;;20.17;;
1765;SDS011;880;52.452;8.656;2023-05-07T01:33:31;30.08;;;18.02;;
1765;SDS011;880;52.452;8.656;2023-05-07T01:36:01;30.15;;;18.27;;
1765;SDS011;880;52.452;8.656;2023-05-07T01:38:32;36.00;;;20.02;;
1765;SDS011;880;52.452;8.656;2023-05-07T01:41:00;36.63;;;16.67;;
1765;SDS011;880;52.452;8.656;2023-05-07T01:43:28;37.40;;;20.23;;
1765;SDS011;880;52.452;8.656;2023-05-07T01:45:57;35.22;;;19.85;;
1765;SDS011;880;52.452;8.656;2023-05-07T01:48:25;35.28;;;20.80;;
1765;SDS011;880;52.452;8.656;2023-05-07T01:50:52;35.92;;;19.20;;
1765;SDS011;880;52.452;8.656;2023-05-07T01:53:20;33.65;;;17.02;;
1765;SDS011;880;52.452;8.656;2023-05-07T01:55:47;37.72;;;20.90;;
1765;SDS011;880;52.452;8.656;2023-05-07T01:58:15;24.13;;;14.35;;
1765;SDS011;880;52.452;8.656;2023-05-07T02:00:42;40.47;;;22.38;;
1765;SDS011;880;52.452;8.656;2023-05-07T02:03:09;39.35;;;21.60;;
1765;SDS011;880;52.452;8.656;2023-05-07T02:05:54;28.35;;;15.70;;
1765;SDS011;880;52.452;8.656;2023-05-07T02:08:28;33.65;;;19.58;;
1765;SDS011;880;52.452;8.656;2023-05-07T02:10:56;37.50;;;20.20;;
1765;SDS011;880;52.452;8.656;2023-05-07T02:13:25;34.25;;;19.67;;
1765;SDS011;880;52.452;8.656;2023-05-07T02:15:55;38.80;;;20.10;;
1765;SDS011;880;52.452;8.656;2023-05-07T02:18:23;34.50;;;19.73;;
1765;SDS011;880;52.452;8.656;2023-05-07T02:20:50;36.45;;;21.13;;
1765;SDS011;880;52.452;8.656;2023-05-07T02:23:17;35.55;;;20.23;;
1765;SDS011;880;52.452;8.656;2023-05-07T02:25:44;35.08;;;18.55;;
1765;SDS011;880;52.452;8.656;2023-05-07T02:28:12;37.03;;;20.20;;
1765;SDS011;880;52.452;8.656;2023-05-07T02:33:16;39.00;;;19.30;;
1765;SDS011;880;52.452;8.656;2023-05-07T02:35:43;38.88;;;21.02;;
1765;SDS011;880;52.452;8.656;2023-05-07T02:38:12;41.15;;;21.10;;
1765;SDS011;880;52.452;8.656;2023-05-07T02:40:40;40.05;;;21.30;;
1765;SDS011;880;52.452;8.656;2023-05-07T02:43:07;29.27;;;17.10;;
1765;SDS011;880;52.452;8.656;2023-05-07T02:45:35;34.33;;;18.50;;
1765;SDS011;880;52.452;8.656;2023-05-07T02:50:32;26.85;;;14.77;;
1765;SDS011;880;52.452;8.656;2023-05-07T02:52:59;33.97;;;19.60;;
1765;SDS011;880;52.452;8.656;2023-05-07T02:55:26;35.92;;;20.33;;
1765;SDS011;880;52.452;8.656;2023-05-07T02:57:54;43.10;;;20.73;;
1765;SDS011;880;52.452;8.656;2023-05-07T03:00:23;39.25;;;19.58;;
1765;SDS011;880;52.452;8.656;2023-05-07T03:03:13;41.50;;;20.77;;
1765;SDS011;880;52.452;8.656;2023-05-07T03:05:41;38.33;;;18.98;;
1765;SDS011;880;52.452;8.656;2023-05-07T03:08:08;44.28;;;22.23;;
1765;SDS011;880;52.452;8.656;2023-05-07T03:10:36;40.47;;;19.80;;
1765;SDS011;880;52.452;8.656;2023-05-07T03:13:03;44.05;;;21.13;;
1765;SDS011;880;52.452;8.656;2023-05-07T03:15:31;42.03;;;22.08;;
1765;SDS011;880;52.452;8.656;2023-05-07T03:17:58;47.42;;;22.00;;
1765;SDS011;880;52.452;8.656;2023-05-07T03:20:25;44.75;;;21.23;;
1765;SDS011;880;52.452;8.656;2023-05-07T03:22:52;41.42;;;22.42;;
1765;SDS011;880;52.452;8.656;2023-05-07T03:25:19;40.50;;;18.75;;
1765;SDS011;880;52.452;8.656;2023-05-07T03:27:46;40.22;;;22.77;;
1765;SDS011;880;52.452;8.656;2023-05-07T03:30:16;50.30;;;23.88;;
1765;SDS011;880;52.452;8.656;2023-05-07T03:32:43;39.78;;;19.08;;
1765;SDS011;880;52.452;8.656;2023-05-07T03:35:11;46.30;;;23.20;;
1765;SDS011;880;52.452;8.656;2023-05-07T03:37:39;44.83;;;23.00;;
1765;SDS011;880;52.452;8.656;2023-05-07T03:40:07;47.10;;;23.15;;
1765;SDS011;880;52.452;8.656;2023-05-07T03:42:42;34.60;;;18.33;;
1765;SDS011;880;52.452;8.656;2023-05-07T03:45:11;43.33;;;19.75;;
1765;SDS011;880;52.452;8.656;2023-05-07T03:47:42;42.00;;;20.48;;
1765;SDS011;880;52.452;8.656;2023-05-07T03:50:13;43.10;;;21.10;;
1765;SDS011;880;52.452;8.656;2023-05-07T03:52:41;41.72;;;21.52;;
1765;SDS011;880;52.452;8.656;2023-05-07T03:55:09;44.53;;;21.00;;
1765;SDS011;880;52.452;8.656;2023-05-07T03:57:38;42.33;;;18.73;;
1765;SDS011;880;52.452;8.656;2023-05-07T04:00:05;34.80;;;18.90;;
1765;SDS011;880;52.452;8.656;2023-05-07T04:02:45;43.83;;;20.80;;
1765;SDS011;880;52.452;8.656;2023-05-07T04:05:15;22.80;;;14.48;;
1765;SDS011;880;52.452;8.656;2023-05-07T04:07:45;34.30;;;20.13;;
1765;SDS011;880;52.452;8.656;2023-05-07T04:10:15;37.33;;;19.15;;
1765;SDS011;880;52.452;8.656;2023-05-07T04:12:45;35.30;;;18.65;;
1765;SDS011;880;52.452;8.656;2023-05-07T04:15:16;38.17;;;21.08;;
1765;SDS011;880;52.452;8.656;2023-05-07T04:17:43;34.58;;;19.23;;
1765;SDS011;880;52.452;8.656;2023-05-07T04:20:14;26.00;;;16.90;;
1765;SDS011;880;52.452;8.656;2023-05-07T04:22:46;33.80;;;18.30;;
1765;SDS011;880;52.452;8.656;2023-05-07T04:25:13;33.38;;;18.88;;
1765;SDS011;880;52.452;8.656;2023-05-07T04:27:43;23.63;;;15.07;;
1765;SDS011;880;52.452;8.656;2023-05-07T04:30:11;34.78;;;18.90;;
1765;SDS011;880;52.452;8.656;2023-05-07T04:32:39;28.67;;;15.18;;
1765;SDS011;880;52.452;8.656;2023-05-07T04:35:07;28.33;;;17.17;;
1765;SDS011;880;52.452;8.656;2023-05-07T04:37:34;36.38;;;20.02;;
1765;SDS011;880;52.452;8.656;2023-05-07T04:40:02;31.52;;;17.08;;
1765;SDS011;880;52.452;8.656;2023-05-07T04:42:30;20.58;;;12.55;;
1765;SDS011;880;52.452;8.656;2023-05-07T04:44:59;32.75;;;18.98;;
1765;SDS011;880;52.452;8.656;2023-05-07T04:47:31;23.33;;;13.32;;
1765;SDS011;880;52.452;8.656;2023-05-07T04:50:00;32.58;;;18.67;;
1765;SDS011;880;52.452;8.656;2023-05-07T04:52:27;29.20;;;18.88;;
1765;SDS011;880;52.452;8.656;2023-05-07T04:54:54;34.53;;;19.42;;
1765;SDS011;880;52.452;8.656;2023-05-07T04:57:21;26.08;;;15.68;;
1765;SDS011;880;52.452;8.656;2023-05-07T04:59:48;32.83;;;18.55;;
1765;SDS011;880;52.452;8.656;2023-05-07T05:02:15;17.67;;;11.02;;
1765;SDS011;880;52.452;8.656;2023-05-07T05:04:46;22.10;;;14.27;;
1765;SDS011;880;52.452;8.656;2023-05-07T05:07:13;24.75;;;15.73;;
1765;SDS011;880;52.452;8.656;2023-05-07T05:09:41;25.63;;;16.95;;
1765;SDS011;880;52.452;8.656;2023-05-07T05:12:08;26.73;;;17.45;;
1765;SDS011;880;52.452;8.656;2023-05-07T05:14:37;30.42;;;18.23;;
1765;SDS011;880;52.452;8.656;2023-05-07T05:17:05;27.13;;;16.23;;
1765;SDS011;880;52.452;8.656;2023-05-07T05:19:32;32.17;;;17.92;;
1765;SDS011;880;52.452;8.656;2023-05-07T05:21:59;31.05;;;18.40;;
1765;SDS011;880;52.452;8.656;2023-05-07T05:24:27;31.60;;;19.02;;
1765;SDS011;880;52.452;8.656;2023-05-07T05:26:54;30.63;;;17.70;;
1765;SDS011;880;52.452;8.656;2023-05-07T05:29:22;32.05;;;19.00;;
1765;SDS011;880;52.452;8.656;2023-05-07T05:31:49;29.55;;;17.25;;
1765;SDS011;880;52.452;8.656;2023-05-07T05:34:17;34.75;;;20.02;;
1765;SDS011;880;52.452;8.656;2023-05-07T05:36:46;30.13;;;17.25;;
1765;SDS011;880;52.452;8.656;2023-05-07T05:39:14;31.73;;;18.50;;
1765;SDS011;880;52.452;8.656;2023-05-07T05:41:41;35.03;;;20.05;;
1765;SDS011;880;52.452;8.656;2023-05-07T05:44:08;31.58;;;18.85;;
1765;SDS011;880;52.452;8.656;2023-05-07T05:46:36;30.60;;;19.17;;
1765;SDS011;880;52.452;8.656;2023-05-07T05:49:03;26.50;;;16.90;;
1765;SDS011;880;52.452;8.656;2023-05-07T05:51:30;28.55;;;18.13;;
1765;SDS011;880;52.452;8.656;2023-05-07T05:53:57;30.60;;;19.63;;
1765;SDS011;880;52.452;8.656;2023-05-07T05:56:24;27.08;;;15.23;;
1765;SDS011;880;52.452;8.656;2023-05-07T05:58:51;28.77;;;18.30;;
1765;SDS011;880;52.452;8.656;2023-05-07T06:01:19;27.63;;;17.30;;
1765;SDS011;880;52.452;8.656;2023-05-07T06:03:48;29.25;;;18.92;;
1765;SDS011;880;52.452;8.656;2023-05-07T06:06:16;27.98;;;17.75;;
1765;SDS011;880;52.452;8.656;2023-05-07T06:08:43;33.75;;;19.38;;
1765;SDS011;880;52.452;8.656;2023-05-07T06:11:14;31.45;;;19.83;;
1765;SDS011;880;52.452;8.656;2023-05-07T06:16:11;26.33;;;15.88;;
1765;SDS011;880;52.452;8.656;2023-05-07T06:18:39;24.58;;;15.90;;
1765;SDS011;880;52.452;8.656;2023-05-07T06:21:06;34.08;;;20.10;;
1765;SDS011;880;52.452;8.656;2023-05-07T06:23:34;31.33;;;18.20;;
1765;SDS011;880;52.452;8.656;2023-05-07T06:26:02;23.15;;;14.60;;
1765;SDS011;880;52.452;8.656;2023-05-07T06:28:36;24.45;;;15.35;;
1765;SDS011;880;52.452;8.656;2023-05-07T06:31:13;28.05;;;16.95;;
1765;SDS011;880;52.452;8.656;2023-05-07T06:33:56;22.48;;;14.40;;
1765;SDS011;880;52.452;8.656;2023-05-07T06:36:28;30.50;;;18.50;;
1765;SDS011;880;52.452;8.656;2023-05-07T06:38:57;27.23;;;15.60;;
1765;SDS011;880;52.452;8.656;2023-05-07T06:41:24;32.15;;;18.45;;
1765;SDS011;880;52.452;8.656;2023-05-07T06:43:53;23.92;;;15.45;;
1765;SDS011;880;52.452;8.656;2023-05-07T06:46:29;32.45;;;18.58;;
1765;SDS011;880;52.452;8.656;2023-05-07T06:48:56;33.35;;;19.20;;
1765;SDS011;880;52.452;8.656;2023-05-07T06:51:25;30.05;;;19.15;;
1765;SDS011;880;52.452;8.656;2023-05-07T06:53:53;29.30;;;19.27;;
1765;SDS011;880;52.452;8.656;2023-05-07T06:56:20;20.08;;;13.40;;
1765;SDS011;880;52.452;8.656;2023-05-07T06:58:47;27.73;;;18.90;;
1765;SDS011;880;52.452;8.656;2023-05-07T07:01:14;30.58;;;18.83;;
1765;SDS011;880;52.452;8.656;2023-05-07T07:03:43;24.58;;;15.50;;
1765;SDS011;880;52.452;8.656;2023-05-07T07:06:09;26.13;;;15.63;;
1765;SDS011;880;52.452;8.656;2023-05-07T07:08:36;28.25;;;18.02;;
1765;SDS011;880;52.452;8.656;2023-05-07T07:11:06;24.20;;;14.77;;
1765;SDS011;880;52.452;8.656;2023-05-07T07:13:34;28.48;;;19.42;;
1765;SDS011;880;52.452;8.656;2023-05-07T07:16:01;24.17;;;14.68;;
1765;SDS011;880;52.452;8.656;2023-05-07T07:18:29;25.33;;;15.50;;
1765;SDS011;880;52.452;8.656;2023-05-07T07:20:57;26.45;;;18.35;;
1765;SDS011;880;52.452;8.656;2023-05-07T07:23:25;30.50;;;18.38;;
1765;SDS011;880;52.452;8.656;2023-05-07T07:25:53;19.23;;;14.75;;
1765;SDS011;880;52.452;8.656;2023-05-07T07:28:20;26.30;;;17.40;;
1765;SDS011;880;52.452;8.656;2023-05-07T07:30:48;26.00;;;17.15;;
1765;SDS011;880;52.452;8.656;2023-05-07T07:33:16;25.27;;;18.42;;
1765;SDS011;880;52.452;8.656;2023-05-07T07:35:43;26.00;;;17.48;;
1765;SDS011;880;52.452;8.656;2023-05-07T07:38:10;23.45;;;16.77;;
1765;SDS011;880;52.452;8.656;2023-05-07T07:40:37;25.33;;;17.80;;
1765;SDS011;880;52.452;8.656;2023-05-07T07:43:06;24.90;;;15.95;;
1765;SDS011;880;52.452;8.656;2023-05-07T07:45:34;21.15;;;15.07;;
1765;SDS011;880;52.452;8.656;2023-05-07T07:48:01;22.52;;;15.07;;
1765;SDS011;880;52.452;8.656;2023-05-07T07:50:32;22.98;;;16.50;;
1765;SDS011;880;52.452;8.656;2023-05-07T07:53:12;27.75;;;15.90;;
1765;SDS011;880;52.452;8.656;2023-05-07T07:55:39;22.55;;;17.00;;
1765;SDS011;880;52.452;8.656;2023-05-07T07:58:09;13.43;;;10.98;;
1765;SDS011;880;52.452;8.656;2023-05-07T08:00:36;21.02;;;16.83;;
1765;SDS011;880;52.452;8.656;2023-05-07T08:03:03;20.70;;;15.38;;
1765;SDS011;880;52.452;8.656;2023-05-07T08:05:35;21.75;;;16.20;;
1765;SDS011;880;52.452;8.656;2023-05-07T08:08:04;25.25;;;15.20;;
1765;SDS011;880;52.452;8.656;2023-05-07T08:10:33;19.30;;;14.80;;
1765;SDS011;880;52.452;8.656;2023-05-07T08:13:07;18.65;;;13.73;;
1765;SDS011;880;52.452;8.656;2023-05-07T08:15:36;15.15;;;10.82;;
1765;SDS011;880;52.452;8.656;2023-05-07T08:18:03;19.92;;;12.00;;
1765;SDS011;880;52.452;8.656;2023-05-07T08:20:31;19.33;;;14.10;;
1765;SDS011;880;52.452;8.656;2023-05-07T08:22:59;17.35;;;12.13;;
1765;SDS011;880;52.452;8.656;2023-05-07T08:25:26;19.83;;;15.05;;
1765;SDS011;880;52.452;8.656;2023-05-07T08:27:54;20.52;;;14.82;;
1765;SDS011;880;52.452;8.656;2023-05-07T08:30:21;14.50;;;11.20;;
1765;SDS011;880;52.452;8.656;2023-05-07T08:32:49;16.13;;;14.23;;
1765;SDS011;880;52.452;8.656;2023-05-07T08:35:16;13.18;;;10.15;;
1765;SDS011;880;52.452;8.656;2023-05-07T08:37:43;16.42;;;12.82;;
1765;SDS011;880;52.452;8.656;2023-05-07T08:40:11;17.48;;;12.23;;
1765;SDS011;880;52.452;8.656;2023-05-07T08:42:41;16.98;;;12.02;;
1765;SDS011;880;52.452;8.656;2023-05-07T08:45:09;14.75;;;10.73;;
1765;SDS011;880;52.452;8.656;2023-05-07T08:47:44;11.93;;;10.57;;
1765;SDS011;880;52.452;8.656;2023-05-07T08:50:21;12.40;;;9.90;;
1765;SDS011;880;52.452;8.656;2023-05-07T08:52:49;12.85;;;10.23;;
1765;SDS011;880;52.452;8.656;2023-05-07T08:55:17;15.85;;;14.15;;
1765;SDS011;880;52.452;8.656;2023-05-07T08:57:46;11.90;;;10.60;;
1765;SDS011;880;52.452;8.656;2023-05-07T09:00:15;14.10;;;9.48;;
1765;SDS011;880;52.452;8.656;2023-05-07T09:02:46;14.45;;;10.85;;
1765;SDS011;880;52.452;8.656;2023-05-07T09:05:13;10.20;;;8.35;;
1765;SDS011;880;52.452;8.656;2023-05-07T09:07:40;12.18;;;9.90;;
1765;SDS011;880;52.452;8.656;2023-05-07T09:10:08;12.45;;;10.30;;
1765;SDS011;880;52.452;8.656;2023-05-07T09:12:40;12.32;;;10.55;;
1765;SDS011;880;52.452;8.656;2023-05-07T09:15:09;12.32;;;10.93;;
1765;SDS011;880;52.452;8.656;2023-05-07T09:17:37;13.35;;;10.25;;
1765;SDS011;880;52.452;8.656;2023-05-07T09:20:05;18.73;;;9.70;;
1765;SDS011;880;52.452;8.656;2023-05-07T09:22:37;11.90;;;9.88;;
1765;SDS011;880;52.452;8.656;2023-05-07T09:25:08;9.80;;;8.95;;
1765;SDS011;880;52.452;8.656;2023-05-07T09:27:37;12.77;;;10.73;;
1765;SDS011;880;52.452;8.656;2023-05-07T09:30:08;10.82;;;9.68;;
1765;SDS011;880;52.452;8.656;2023-05-07T09:32:36;13.65;;;10.90;;
1765;SDS011;880;52.452;8.656;2023-05-07T09:35:15;10.90;;;9.35;;
1765;SDS011;880;52.452;8.656;2023-05-07T09:37:48;11.18;;;10.07;;
1765;SDS011;880;52.452;8.656;2023-05-07T09:40:23;11.18;;;9.95;;
1765;SDS011;880;52.452;8.656;2023-05-07T09:42:52;11.23;;;10.13;;
1765;SDS011;880;52.452;8.656;2023-05-07T09:45:24;10.52;;;8.35;;
1765;SDS011;880;52.452;8.656;2023-05-07T09:47:53;12.63;;;11.25;;
1765;SDS011;880;52.452;8.656;2023-05-07T09:50:26;12.00;;;10.20;;
1765;SDS011;880;52.452;8.656;2023-05-07T09:52:59;12.35;;;11.07;;
1765;SDS011;880;52.452;8.656;2023-05-07T09:55:27;10.23;;;9.32;;
1765;SDS011;880;52.452;8.656;2023-05-07T09:57:54;14.95;;;10.55;;
1765;SDS011;880;52.452;8.656;2023-05-07T10:00:23;12.25;;;11.02;;
1765;SDS011;880;52.452;8.656;2023-05-07T10:02:59;12.45;;;11.15;;
1765;SDS011;880;52.452;8.656;2023-05-07T10:05:39;12.85;;;11.52;;
1765;SDS011;880;52.452;8.656;2023-05-07T10:08:07;12.45;;;11.18;;
1765;SDS011;880;52.452;8.656;2023-05-07T10:10:37;12.15;;;10.90;;
1765;SDS011;880;52.452;8.656;2023-05-07T10:13:07;12.38;;;11.18;;
1765;SDS011;880;52.452;8.656;2023-05-07T10:15:41;12.73;;;11.45;;
1765;SDS011;880;52.452;8.656;2023-05-07T10:18:08;13.02;;;11.55;;
1765;SDS011;880;52.452;8.656;2023-05-07T10:20:36;12.63;;;10.85;;
1765;SDS011;880;52.452;8.656;2023-05-07T10:23:07;12.77;;;11.65;;
1765;SDS011;880;52.452;8.656;2023-05-07T10:25:42;10.50;;;9.63;;
1765;SDS011;880;52.452;8.656;2023-05-07T10:28:16;14.20;;;11.93;;
1765;SDS011;880;52.452;8.656;2023-05-07T10:36:12;13.43;;;11.77;;
1765;SDS011;880;52.452;8.656;2023-05-07T10:38:39;14.00;;;12.57;;
1765;SDS011;880;52.452;8.656;2023-05-07T10:41:07;14.30;;;12.80;;
1765;SDS011;880;52.452;8.656;2023-05-07T10:43:38;14.10;;;12.68;;
1765;SDS011;880;52.452;8.656;2023-05-07T10:51:34;13.02;;;11.73;;
1765;SDS011;880;52.452;8.656;2023-05-07T10:54:19;14.68;;;12.25;;
1765;SDS011;880;52.452;8.656;2023-05-07T11:03:07;13.52;;;12.18;;
1765;SDS011;880;52.452;8.656;2023-05-07T11:08:58;13.45;;;12.23;;
1765;SDS011;880;52.452;8.656;2023-05-07T11:11:45;16.67;;;14.98;;
1765;SDS011;880;52.452;8.656;2023-05-07T11:17:16;13.00;;;11.80;;
1765;SDS011;880;52.452;8.656;2023-05-07T11:19:50;13.40;;;12.05;;
1765;SDS011;880;52.452;8.656;2023-05-07T11:25:06;14.73;;;13.23;;
1765;SDS011;880;52.452;8.656;2023-05-07T11:27:35;13.95;;;12.65;;
1765;SDS011;880;52.452;8.656;2023-05-07T11:30:03;15.80;;;14.27;;
1765;SDS011;880;52.452;8.656;2023-05-07T11:32:31;16.02;;;14.43;;
1765;SDS011;880;52.452;8.656;2023-05-07T11:35:00;15.45;;;13.98;;
1765;SDS011;880;52.452;8.656;2023-05-07T11:37:27;14.10;;;12.90;;
1765;SDS011;880;52.452;8.656;2023-05-07T11:40:03;10.02;;;9.13;;
1765;SDS011;880;52.452;8.656;2023-05-07T11:42:33;11.73;;;10.35;;
1765;SDS011;880;52.452;8.656;2023-05-07T11:45:07;13.15;;;11.85;;
1765;SDS011;880;52.452;8.656;2023-05-07T11:47:35;13.48;;;12.25;;
1765;SDS011;880;52.452;8.656;2023-05-07T11:50:04;12.85;;;11.65;;
1765;SDS011;880;52.452;8.656;2023-05-07T11:52:34;13.60;;;12.02;;
1765;SDS011;880;52.452;8.656;2023-05-07T11:55:02;12.63;;;11.43;;
1765;SDS011;880;52.452;8.656;2023-05-07T11:57:32;12.43;;;10.90;;
1765;SDS011;880;52.452;8.656;2023-05-07T12:00:01;12.88;;;11.57;;
1765;SDS011;880;52.452;8.656;2023-05-07T12:02:40;13.98;;;12.77;;
1765;SDS011;880;52.452;8.656;2023-05-07T12:05:08;12.70;;;11.60;;
1765;SDS011;880;52.452;8.656;2023-05-07T12:07:36;12.45;;;11.32;;
1765;SDS011;880;52.452;8.656;2023-05-07T12:10:04;13.85;;;12.52;;
1765;SDS011;880;52.452;8.656;2023-05-07T12:12:39;12.73;;;11.63;;
1765;SDS011;880;52.452;8.656;2023-05-07T12:15:08;15.30;;;13.80;;
1765;SDS011;880;52.452;8.656;2023-05-07T12:17:36;13.88;;;12.48;;
1765;SDS011;880;52.452;8.656;2023-05-07T12:20:04;14.15;;;12.85;;
1765;SDS011;880;52.452;8.656;2023-05-07T12:22:32;13.90;;;12.60;;
1765;SDS011;880;52.452;8.656;2023-05-07T12:24:59;12.88;;;11.65;;
1765;SDS011;880;52.452;8.656;2023-05-07T12:27:26;13.07;;;11.88;;
1765;SDS011;880;52.452;8.656;2023-05-07T12:29:53;14.13;;;12.73;;
1765;SDS011;880;52.452;8.656;2023-05-07T12:32:20;14.73;;;13.32;;
1765;SDS011;880;52.452;8.656;2023-05-07T12:34:51;14.50;;;13.10;;
1765;SDS011;880;52.452;8.656;2023-05-07T12:37:24;12.48;;;11.27;;
1765;SDS011;880;52.452;8.656;2023-05-07T12:40:03;15.02;;;13.52;;
1765;SDS011;880;52.452;8.656;2023-05-07T12:42:33;12.40;;;11.30;;
1765;SDS011;880;52.452;8.656;2023-05-07T12:45:12;16.33;;;14.80;;
1765;SDS011;880;52.452;8.656;2023-05-07T12:47:43;15.73;;;14.25;;
1765;SDS011;880;52.452;8.656;2023-05-07T12:50:12;16.73;;;14.73;;
1765;SDS011;880;52.452;8.656;2023-05-07T12:52:40;17.13;;;15.50;;
1765;SDS011;880;52.452;8.656;2023-05-07T12:55:11;16.35;;;14.85;;
1765;SDS011;880;52.452;8.656;2023-05-07T12:57:41;15.93;;;14.27;;
1765;SDS011;880;52.452;8.656;2023-05-07T13:00:12;17.48;;;15.60;;
1765;SDS011;880;52.452;8.656;2023-05-07T13:02:40;17.17;;;13.63;;
1765;SDS011;880;52.452;8.656;2023-05-07T13:05:11;15.90;;;14.38;;
1765;SDS011;880;52.452;8.656;2023-05-07T13:07:39;14.48;;;13.02;;
1765;SDS011;880;52.452;8.656;2023-05-07T13:10:07;14.75;;;12.68;;
1765;SDS011;880;52.452;8.656;2023-05-07T13:12:34;14.15;;;12.65;;
1765;SDS011;880;52.452;8.656;2023-05-07T13:15:02;12.40;;;11.20;;
1765;SDS011;880;52.452;8.656;2023-05-07T13:17:29;15.07;;;13.55;;
1765;SDS011;880;52.452;8.656;2023-05-07T13:19:57;15.98;;;14.52;;
1765;SDS011;880;52.452;8.656;2023-05-07T13:22:24;14.02;;;12.73;;
1765;SDS011;880;52.452;8.656;2023-05-07T13:24:51;15.65;;;14.13;;
1765;SDS011;880;52.452;8.656;2023-05-07T13:27:19;14.73;;;13.32;;
1765;SDS011;880;52.452;8.656;2023-05-07T13:29:46;14.75;;;13.43;;
1765;SDS011;880;52.452;8.656;2023-05-07T13:32:13;14.15;;;12.80;;
1765;SDS011;880;52.452;8.656;2023-05-07T13:34:40;13.70;;;12.35;;
1765;SDS011;880;52.452;8.656;2023-05-07T13:37:07;13.93;;;12.63;;
1765;SDS011;880;52.452;8.656;2023-05-07T13:39:36;13.35;;;12.05;;
1765;SDS011;880;52.452;8.656;2023-05-07T13:42:03;13.57;;;12.25;;
1765;SDS011;880;52.452;8.656;2023-05-07T13:44:30;15.68;;;12.48;;
1765;SDS011;880;52.452;8.656;2023-05-07T13:46:57;15.57;;;14.10;;
1765;SDS011;880;52.452;8.656;2023-05-07T13:49:24;11.77;;;10.68;;
1765;SDS011;880;52.452;8.656;2023-05-07T13:51:51;14.32;;;12.90;;
1765;SDS011;880;52.452;8.656;2023-05-07T13:54:18;13.73;;;12.48;;
1765;SDS011;880;52.452;8.656;2023-05-07T13:56:45;15.13;;;13.77;;
1765;SDS011;880;52.452;8.656;2023-05-07T13:59:12;13.20;;;12.00;;
1765;SDS011;880;52.452;8.656;2023-05-07T14:01:40;13.65;;;12.45;;
1765;SDS011;880;52.452;8.656;2023-05-07T14:04:07;14.80;;;13.25;;
1765;SDS011;880;52.452;8.656;2023-05-07T14:06:34;15.10;;;13.00;;
1765;SDS011;880;52.452;8.656;2023-05-07T14:09:02;14.85;;;13.48;;
1765;SDS011;880;52.452;8.656;2023-05-07T14:11:29;14.27;;;12.77;;
1765;SDS011;880;52.452;8.656;2023-05-07T14:13:57;12.15;;;11.07;;
1765;SDS011;880;52.452;8.656;2023-05-07T14:16:24;12.27;;;11.18;;
1765;SDS011;880;52.452;8.656;2023-05-07T14:18:51;12.15;;;11.00;;
1765;SDS011;880;52.452;8.656;2023-05-07T14:21:23;12.57;;;11.48;;
1765;SDS011;880;52.452;8.656;2023-05-07T14:23:50;13.48;;;12.07;;
1765;SDS011;880;52.452;8.656;2023-05-07T14:26:17;12.35;;;11.15;;
1765;SDS011;880;52.452;8.656;2023-05-07T14:28:44;11.77;;;10.77;;
1765;SDS011;880;52.452;8.656;2023-05-07T14:31:12;12.48;;;11.27;;
1765;SDS011;880;52.452;8.656;2023-05-07T14:33:39;10.95;;;9.95;;
1765;SDS011;880;52.452;8.656;2023-05-07T14:36:07;13.13;;;12.00;;
1765;SDS011;880;52.452;8.656;2023-05-07T14:38:34;12.25;;;11.20;;
1765;SDS011;880;52.452;8.656;2023-05-07T14:41:01;13.25;;;11.98;;
1765;SDS011;880;52.452;8.656;2023-05-07T14:43:28;11.57;;;10.40;;
1765;SDS011;880;52.452;8.656;2023-05-07T14:45:55;14.88;;;11.77;;
1765;SDS011;880;52.452;8.656;2023-05-07T14:48:22;12.10;;;11.10;;
1765;SDS011;880;52.452;8.656;2023-05-07T14:50:49;12.07;;;10.98;;
1765;SDS011;880;52.452;8.656;2023-05-07T14:53:16;11.48;;;10.57;;
1765;SDS011;880;52.452;8.656;2023-05-07T14:55:43;12.88;;;11.73;;
1765;SDS011;880;52.452;8.656;2023-05-07T14:58:10;10.02;;;9.30;;
1765;SDS011;880;52.452;8.656;2023-05-07T15:00:37;11.18;;;10.18;;
1765;SDS011;880;52.452;8.656;2023-05-07T15:03:05;12.23;;;11.13;;
1765;SDS011;880;52.452;8.656;2023-05-07T15:05:35;12.13;;;11.13;;
1765;SDS011;880;52.452;8.656;2023-05-07T15:08:02;12.43;;;11.30;;
1765;SDS011;880;52.452;8.656;2023-05-07T15:10:29;11.32;;;10.43;;
1765;SDS011;880;52.452;8.656;2023-05-07T15:12:56;11.95;;;10.95;;
1765;SDS011;880;52.452;8.656;2023-05-07T15:15:23;11.48;;;10.45;;
1765;SDS011;880;52.452;8.656;2023-05-07T15:17:52;11.55;;;10.57;;
1765;SDS011;880;52.452;8.656;2023-05-07T15:20:19;12.05;;;10.77;;
1765;SDS011;880;52.452;8.656;2023-05-07T15:22:46;12.40;;;11.20;;
1765;SDS011;880;52.452;8.656;2023-05-07T15:25:13;11.90;;;10.90;;
1765;SDS011;880;52.452;8.656;2023-05-07T15:27:40;13.02;;;11.82;;
1765;SDS011;880;52.452;8.656;2023-05-07T15:30:08;11.80;;;10.75;;
1765;SDS011;880;52.452;8.656;2023-05-07T15:32:37;12.20;;;11.00;;
1765;SDS011;880;52.452;8.656;2023-05-07T15:35:05;13.27;;;11.98;;
1765;SDS011;880;52.452;8.656;2023-05-07T15:37:32;12.48;;;11.20;;
1765;SDS011;880;52.452;8.656;2023-05-07T15:40:00;10.43;;;9.55;;
1765;SDS011;880;52.452;8.656;2023-05-07T15:42:32;12.07;;;10.82;;
1765;SDS011;880;52.452;8.656;2023-05-07T15:44:59;13.32;;;11.73;;
1765;SDS011;880;52.452;8.656;2023-05-07T15:47:27;12.75;;;11.45;;